sensor_id;sensor_type;location;lat;lon;timestamp;P1;durP1;ratioP1;P2;durP2;ratioP2
11504;SDS011;5809;53.262;10.408;2023-04-16T00:00:12;39.60;;;28.50;;
11504;SDS011;5809;53.262;10.408;2023-04-16T00:02:39;40.90;;;29.13;;
11504;SDS011;5809;53.262;10.408;2023-04-16T00:05:06;40.33;;;29.07;;
11504;SDS011;5809;53.262;10.408;2023-04-16T00:07:34;38.37;;;29.03;;
11504;SDS011;5809;53.262;10.408;2023-04-16T00:10:02;38.83;;;29.10;;
11504;SDS011;5809;53.262;10.408;2023-04-16T00:12:31;41.53;;;29.50;;
11504;SDS011;5809;53.262;10.408;2023-04-16T00:14:58;40.67;;;29.27;;
11504;SDS011;5809;53.262;10.408;2023-04-16T00:17:25;41.53;;;28.60;;
11504;SDS011;5809;53.262;10.408;2023-04-16T00:19:51;45.37;;;29.77;;
11504;SDS011;5809;53.262;10.408;2023-04-16T00:22:18;38.53;;;28.90;;
11504;SDS011;5809;53.262;10.408;2023-04-16T00:24:46;40.33;;;29.77;;
11504;SDS011;5809;53.262;10.408;2023-04-16T00:27:14;38.23;;;29.87;;
11504;SDS011;5809;53.262;10.408;2023-04-16T00:29:42;40.37;;;28.90;;
11504;SDS011;5809;53.262;10.408;2023-04-16T00:32:10;43.20;;;29.33;;
11504;SDS011;5809;53.262;10.408;2023-04-16T00:34:36;39.13;;;28.63;;
11504;SDS011;5809;53.262;10.408;2023-04-16T00:37:04;38.50;;;28.87;;
11504;SDS011;5809;53.262;10.408;2023-04-16T00:39:31;37.20;;;28.27;;
11504;SDS011;5809;53.262;10.408;2023-04-16T00:41:58;38.77;;;28.30;;
11504;SDS011;5809;53.262;10.408;2023-04-16T00:44:25;39.17;;;28.00;;
11504;SDS011;5809;53.262;10.408;2023-04-16T00:46:54;37.37;;;27.53;;
11504;SDS011;5809;53.262;10.408;2023-04-16T00:49:22;41.83;;;27.73;;
11504;SDS011;5809;53.262;10.408;2023-04-16T00:51:49;35.63;;;26.37;;
11504;SDS011;5809;53.262;10.408;2023-04-16T00:54:16;39.60;;;27.53;;
11504;SDS011;5809;53.262;10.408;2023-04-16T00:56:44;38.67;;;27.60;;
11504;SDS011;5809;53.262;10.408;2023-04-16T00:59:11;35.37;;;27.43;;
11504;SDS011;5809;53.262;10.408;2023-04-16T01:01:39;34.27;;;26.63;;
11504;SDS011;5809;53.262;10.408;2023-04-16T01:04:07;35.50;;;27.20;;
11504;SDS011;5809;53.262;10.408;2023-04-16T01:06:34;38.47;;;27.10;;
11504;SDS011;5809;53.262;10.408;2023-04-16T01:09:01;35.90;;;26.73;;
11504;SDS011;5809;53.262;10.408;2023-04-16T01:11:28;36.33;;;27.87;;
11504;SDS011;5809;53.262;10.408;2023-04-16T01:13:55;35.90;;;27.77;;
11504;SDS011;5809;53.262;10.408;2023-04-16T01:16:22;34.93;;;26.27;;
11504;SDS011;5809;53.262;10.408;2023-04-16T01:18:50;40.53;;;27.93;;
11504;SDS011;5809;53.262;10.408;2023-04-16T01:21:19;36.80;;;26.27;;
11504;SDS011;5809;53.262;10.408;2023-04-16T01:23:46;34.97;;;24.97;;
11504;SDS011;5809;53.262;10.408;2023-04-16T01:26:12;37.50;;;26.63;;
11504;SDS011;5809;53.262;10.408;2023-04-16T01:28:40;33.27;;;25.00;;
11504;SDS011;5809;53.262;10.408;2023-04-16T01:31:07;39.37;;;27.00;;
11504;SDS011;5809;53.262;10.408;2023-04-16T01:33:34;33.40;;;24.53;;
11504;SDS011;5809;53.262;10.408;2023-04-16T01:36:00;35.07;;;23.93;;
11504;SDS011;5809;53.262;10.408;2023-04-16T01:38:29;34.80;;;24.13;;
11504;SDS011;5809;53.262;10.408;2023-04-16T01:40:56;33.17;;;23.60;;
11504;SDS011;5809;53.262;10.408;2023-04-16T01:43:23;31.50;;;23.50;;
11504;SDS011;5809;53.262;10.408;2023-04-16T01:45:50;29.83;;;22.57;;
11504;SDS011;5809;53.262;10.408;2023-04-16T01:48:19;38.70;;;23.50;;
11504;SDS011;5809;53.262;10.408;2023-04-16T01:50:46;27.67;;;21.47;;
11504;SDS011;5809;53.262;10.408;2023-04-16T01:53:13;33.03;;;22.47;;
11504;SDS011;5809;53.262;10.408;2023-04-16T01:55:41;31.40;;;23.47;;
11504;SDS011;5809;53.262;10.408;2023-04-16T01:58:08;34.97;;;23.80;;
11504;SDS011;5809;53.262;10.408;2023-04-16T02:00:37;33.80;;;23.13;;
11504;SDS011;5809;53.262;10.408;2023-04-16T02:03:05;27.53;;;22.27;;
11504;SDS011;5809;53.262;10.408;2023-04-16T02:05:32;30.57;;;21.37;;
11504;SDS011;5809;53.262;10.408;2023-04-16T02:07:59;30.77;;;21.73;;
11504;SDS011;5809;53.262;10.408;2023-04-16T02:10:26;32.83;;;21.77;;
11504;SDS011;5809;53.262;10.408;2023-04-16T02:12:54;28.93;;;21.23;;
11504;SDS011;5809;53.262;10.408;2023-04-16T02:15:21;32.20;;;22.17;;
11504;SDS011;5809;53.262;10.408;2023-04-16T02:17:49;30.10;;;20.63;;
11504;SDS011;5809;53.262;10.408;2023-04-16T02:20:20;28.20;;;20.70;;
11504;SDS011;5809;53.262;10.408;2023-04-16T02:22:47;26.00;;;19.70;;
11504;SDS011;5809;53.262;10.408;2023-04-16T02:25:14;29.33;;;20.00;;
11504;SDS011;5809;53.262;10.408;2023-04-16T02:27:41;29.10;;;19.73;;
11504;SDS011;5809;53.262;10.408;2023-04-16T02:30:10;29.37;;;20.37;;
11504;SDS011;5809;53.262;10.408;2023-04-16T02:32:37;25.33;;;19.63;;
11504;SDS011;5809;53.262;10.408;2023-04-16T02:35:04;25.43;;;19.83;;
11504;SDS011;5809;53.262;10.408;2023-04-16T02:37:32;26.10;;;19.57;;
11504;SDS011;5809;53.262;10.408;2023-04-16T02:39:59;25.67;;;19.70;;
11504;SDS011;5809;53.262;10.408;2023-04-16T02:42:26;24.50;;;19.40;;
11504;SDS011;5809;53.262;10.408;2023-04-16T02:44:53;26.50;;;19.67;;
11504;SDS011;5809;53.262;10.408;2023-04-16T02:47:21;31.67;;;20.37;;
11504;SDS011;5809;53.262;10.408;2023-04-16T02:49:48;27.57;;;19.63;;
11504;SDS011;5809;53.262;10.408;2023-04-16T02:52:15;23.97;;;18.80;;
11504;SDS011;5809;53.262;10.408;2023-04-16T02:54:42;27.47;;;19.80;;
11504;SDS011;5809;53.262;10.408;2023-04-16T02:57:08;26.13;;;19.40;;
11504;SDS011;5809;53.262;10.408;2023-04-16T02:59:36;25.03;;;18.73;;
11504;SDS011;5809;53.262;10.408;2023-04-16T03:02:02;25.43;;;18.97;;
11504;SDS011;5809;53.262;10.408;2023-04-16T03:04:32;26.77;;;19.67;;
11504;SDS011;5809;53.262;10.408;2023-04-16T03:06:59;26.30;;;17.97;;
11504;SDS011;5809;53.262;10.408;2023-04-16T03:09:26;24.50;;;18.17;;
11504;SDS011;5809;53.262;10.408;2023-04-16T03:11:53;30.20;;;19.23;;
11504;SDS011;5809;53.262;10.408;2023-04-16T03:14:21;28.50;;;19.40;;
11504;SDS011;5809;53.262;10.408;2023-04-16T03:16:48;24.23;;;17.93;;
11504;SDS011;5809;53.262;10.408;2023-04-16T03:19:16;27.20;;;18.90;;
11504;SDS011;5809;53.262;10.408;2023-04-16T03:21:44;24.40;;;18.77;;
11504;SDS011;5809;53.262;10.408;2023-04-16T03:24:11;25.43;;;18.17;;
11504;SDS011;5809;53.262;10.408;2023-04-16T03:26:38;23.37;;;17.93;;
11504;SDS011;5809;53.262;10.408;2023-04-16T03:29:05;25.87;;;18.30;;
11504;SDS011;5809;53.262;10.408;2023-04-16T03:31:32;28.47;;;19.10;;
11504;SDS011;5809;53.262;10.408;2023-04-16T03:33:59;26.67;;;18.43;;
11504;SDS011;5809;53.262;10.408;2023-04-16T03:36:26;25.70;;;17.97;;
11504;SDS011;5809;53.262;10.408;2023-04-16T03:38:54;25.83;;;17.87;;
11504;SDS011;5809;53.262;10.408;2023-04-16T03:41:21;27.07;;;18.37;;
11504;SDS011;5809;53.262;10.408;2023-04-16T03:43:48;24.17;;;17.73;;
11504;SDS011;5809;53.262;10.408;2023-04-16T03:46:15;23.73;;;18.07;;
11504;SDS011;5809;53.262;10.408;2023-04-16T03:48:42;26.77;;;17.97;;
11504;SDS011;5809;53.262;10.408;2023-04-16T03:51:09;24.50;;;18.13;;
11504;SDS011;5809;53.262;10.408;2023-04-16T03:53:36;23.23;;;17.37;;
11504;SDS011;5809;53.262;10.408;2023-04-16T03:56:05;22.67;;;16.93;;
11504;SDS011;5809;53.262;10.408;2023-04-16T03:58:32;25.30;;;18.23;;
11504;SDS011;5809;53.262;10.408;2023-04-16T04:00:59;22.40;;;16.07;;
11504;SDS011;5809;53.262;10.408;2023-04-16T04:03:26;22.23;;;17.70;;
11504;SDS011;5809;53.262;10.408;2023-04-16T04:05:53;21.13;;;17.67;;
11504;SDS011;5809;53.262;10.408;2023-04-16T04:08:20;22.83;;;18.03;;
11504;SDS011;5809;53.262;10.408;2023-04-16T04:10:47;20.47;;;16.63;;
11504;SDS011;5809;53.262;10.408;2023-04-16T04:13:16;23.63;;;17.33;;
11504;SDS011;5809;53.262;10.408;2023-04-16T04:15:43;22.73;;;17.40;;
11504;SDS011;5809;53.262;10.408;2023-04-16T04:18:10;21.87;;;16.83;;
11504;SDS011;5809;53.262;10.408;2023-04-16T04:20:38;25.73;;;16.77;;
11504;SDS011;5809;53.262;10.408;2023-04-16T04:23:05;21.40;;;17.27;;
11504;SDS011;5809;53.262;10.408;2023-04-16T04:25:32;23.40;;;16.37;;
11504;SDS011;5809;53.262;10.408;2023-04-16T04:27:59;23.57;;;16.47;;
11504;SDS011;5809;53.262;10.408;2023-04-16T04:30:27;21.73;;;16.67;;
11504;SDS011;5809;53.262;10.408;2023-04-16T04:32:54;22.23;;;16.73;;
11504;SDS011;5809;53.262;10.408;2023-04-16T04:35:21;20.77;;;16.60;;
11504;SDS011;5809;53.262;10.408;2023-04-16T04:37:48;21.63;;;16.07;;
11504;SDS011;5809;53.262;10.408;2023-04-16T04:40:15;20.30;;;15.93;;
11504;SDS011;5809;53.262;10.408;2023-04-16T04:42:42;23.20;;;16.90;;
11504;SDS011;5809;53.262;10.408;2023-04-16T04:45:09;22.80;;;16.20;;
11504;SDS011;5809;53.262;10.408;2023-04-16T04:47:38;21.37;;;15.90;;
11504;SDS011;5809;53.262;10.408;2023-04-16T04:50:05;23.07;;;16.57;;
11504;SDS011;5809;53.262;10.408;2023-04-16T04:52:32;23.07;;;15.87;;
11504;SDS011;5809;53.262;10.408;2023-04-16T04:54:59;22.63;;;16.47;;
11504;SDS011;5809;53.262;10.408;2023-04-16T04:57:27;22.10;;;16.27;;
11504;SDS011;5809;53.262;10.408;2023-04-16T04:59:53;21.47;;;16.70;;
11504;SDS011;5809;53.262;10.408;2023-04-16T05:02:20;22.97;;;17.07;;
11504;SDS011;5809;53.262;10.408;2023-04-16T05:04:49;24.40;;;17.00;;
11504;SDS011;5809;53.262;10.408;2023-04-16T05:07:15;22.83;;;16.93;;
11504;SDS011;5809;53.262;10.408;2023-04-16T05:09:42;26.07;;;16.37;;
11504;SDS011;5809;53.262;10.408;2023-04-16T05:12:09;21.90;;;16.47;;
11504;SDS011;5809;53.262;10.408;2023-04-16T05:14:36;21.17;;;16.70;;
11504;SDS011;5809;53.262;10.408;2023-04-16T05:17:03;22.27;;;15.93;;
11504;SDS011;5809;53.262;10.408;2023-04-16T05:19:31;23.10;;;16.37;;
11504;SDS011;5809;53.262;10.408;2023-04-16T05:22:00;24.07;;;16.33;;
11504;SDS011;5809;53.262;10.408;2023-04-16T05:24:27;21.27;;;16.53;;
11504;SDS011;5809;53.262;10.408;2023-04-16T05:26:54;20.53;;;16.07;;
11504;SDS011;5809;53.262;10.408;2023-04-16T05:29:21;22.80;;;16.50;;
11504;SDS011;5809;53.262;10.408;2023-04-16T05:31:49;22.57;;;16.03;;
11504;SDS011;5809;53.262;10.408;2023-04-16T05:34:15;23.23;;;16.80;;
11504;SDS011;5809;53.262;10.408;2023-04-16T05:36:42;23.93;;;16.63;;
11504;SDS011;5809;53.262;10.408;2023-04-16T05:39:11;24.63;;;16.97;;
11504;SDS011;5809;53.262;10.408;2023-04-16T05:41:38;24.47;;;16.97;;
11504;SDS011;5809;53.262;10.408;2023-04-16T05:44:04;22.97;;;15.97;;
11504;SDS011;5809;53.262;10.408;2023-04-16T05:46:31;21.83;;;16.67;;
11504;SDS011;5809;53.262;10.408;2023-04-16T05:48:58;22.67;;;16.80;;
11504;SDS011;5809;53.262;10.408;2023-04-16T05:51:25;20.53;;;15.90;;
11504;SDS011;5809;53.262;10.408;2023-04-16T05:53:52;25.00;;;17.03;;
11504;SDS011;5809;53.262;10.408;2023-04-16T05:56:20;20.67;;;16.00;;
11504;SDS011;5809;53.262;10.408;2023-04-16T05:58:47;22.20;;;16.43;;
11504;SDS011;5809;53.262;10.408;2023-04-16T06:01:15;18.80;;;16.07;;
11504;SDS011;5809;53.262;10.408;2023-04-16T06:03:43;19.43;;;16.37;;
11504;SDS011;5809;53.262;10.408;2023-04-16T06:06:10;21.47;;;16.13;;
11504;SDS011;5809;53.262;10.408;2023-04-16T06:08:37;26.17;;;16.90;;
11504;SDS011;5809;53.262;10.408;2023-04-16T06:11:04;19.80;;;16.17;;
11504;SDS011;5809;53.262;10.408;2023-04-16T06:13:32;21.13;;;16.17;;
11504;SDS011;5809;53.262;10.408;2023-04-16T06:15:59;21.10;;;16.33;;
11504;SDS011;5809;53.262;10.408;2023-04-16T06:18:26;21.87;;;16.33;;
11504;SDS011;5809;53.262;10.408;2023-04-16T06:20:53;20.70;;;15.80;;
11504;SDS011;5809;53.262;10.408;2023-04-16T06:23:20;21.03;;;17.03;;
11504;SDS011;5809;53.262;10.408;2023-04-16T06:25:47;25.63;;;17.77;;
11504;SDS011;5809;53.262;10.408;2023-04-16T06:28:14;27.33;;;18.13;;
11504;SDS011;5809;53.262;10.408;2023-04-16T06:30:43;21.40;;;16.77;;
11504;SDS011;5809;53.262;10.408;2023-04-16T06:33:10;21.80;;;16.63;;
11504;SDS011;5809;53.262;10.408;2023-04-16T06:35:37;25.07;;;18.60;;
11504;SDS011;5809;53.262;10.408;2023-04-16T06:38:03;23.40;;;18.67;;
11504;SDS011;5809;53.262;10.408;2023-04-16T06:40:30;21.23;;;17.13;;
11504;SDS011;5809;53.262;10.408;2023-04-16T06:42:57;24.97;;;17.53;;
11504;SDS011;5809;53.262;10.408;2023-04-16T06:45:25;24.10;;;18.03;;
11504;SDS011;5809;53.262;10.408;2023-04-16T06:47:53;23.87;;;17.70;;
11504;SDS011;5809;53.262;10.408;2023-04-16T06:50:22;21.20;;;17.47;;
11504;SDS011;5809;53.262;10.408;2023-04-16T06:52:50;21.70;;;17.47;;
11504;SDS011;5809;53.262;10.408;2023-04-16T06:55:17;23.03;;;16.90;;
11504;SDS011;5809;53.262;10.408;2023-04-16T06:57:44;19.50;;;17.07;;
11504;SDS011;5809;53.262;10.408;2023-04-16T07:00:11;27.70;;;17.57;;
11504;SDS011;5809;53.262;10.408;2023-04-16T07:02:38;20.93;;;16.23;;
11504;SDS011;5809;53.262;10.408;2023-04-16T07:05:07;21.47;;;17.70;;
11504;SDS011;5809;53.262;10.408;2023-04-16T07:07:34;24.43;;;17.23;;
11504;SDS011;5809;53.262;10.408;2023-04-16T07:10:01;22.67;;;17.33;;
11504;SDS011;5809;53.262;10.408;2023-04-16T07:12:29;21.43;;;17.13;;
11504;SDS011;5809;53.262;10.408;2023-04-16T07:14:56;21.63;;;16.67;;
11504;SDS011;5809;53.262;10.408;2023-04-16T07:17:23;23.83;;;17.00;;
11504;SDS011;5809;53.262;10.408;2023-04-16T07:19:50;24.37;;;17.53;;
11504;SDS011;5809;53.262;10.408;2023-04-16T07:22:18;22.00;;;17.53;;
11504;SDS011;5809;53.262;10.408;2023-04-16T07:24:45;22.53;;;17.23;;
11504;SDS011;5809;53.262;10.408;2023-04-16T07:27:12;23.13;;;16.50;;
11504;SDS011;5809;53.262;10.408;2023-04-16T07:29:39;24.15;;;17.27;;
11504;SDS011;5809;53.262;10.408;2023-04-16T07:32:06;19.27;;;16.30;;
11504;SDS011;5809;53.262;10.408;2023-04-16T07:34:33;23.53;;;17.93;;
11504;SDS011;5809;53.262;10.408;2023-04-16T07:37:00;22.90;;;16.20;;
11504;SDS011;5809;53.262;10.408;2023-04-16T07:39:29;23.90;;;16.30;;
11504;SDS011;5809;53.262;10.408;2023-04-16T07:41:56;22.10;;;15.63;;
11504;SDS011;5809;53.262;10.408;2023-04-16T07:44:23;23.17;;;16.70;;
11504;SDS011;5809;53.262;10.408;2023-04-16T07:46:50;23.27;;;16.00;;
11504;SDS011;5809;53.262;10.408;2023-04-16T07:49:17;20.87;;;15.63;;
11504;SDS011;5809;53.262;10.408;2023-04-16T07:51:44;22.07;;;16.33;;
11504;SDS011;5809;53.262;10.408;2023-04-16T07:54:10;18.73;;;15.47;;
11504;SDS011;5809;53.262;10.408;2023-04-16T07:56:39;18.92;;;15.40;;
11504;SDS011;5809;53.262;10.408;2023-04-16T07:59:06;24.35;;;15.68;;
11504;SDS011;5809;53.262;10.408;2023-04-16T08:01:33;19.33;;;15.10;;
11504;SDS011;5809;53.262;10.408;2023-04-16T08:04:00;20.33;;;15.35;;
11504;SDS011;5809;53.262;10.408;2023-04-16T08:06:27;18.10;;;14.55;;
11504;SDS011;5809;53.262;10.408;2023-04-16T08:08:54;19.67;;;15.40;;
11504;SDS011;5809;53.262;10.408;2023-04-16T08:11:21;19.00;;;15.35;;
11504;SDS011;5809;53.262;10.408;2023-04-16T08:13:50;17.80;;;15.05;;
11504;SDS011;5809;53.262;10.408;2023-04-16T08:16:17;20.98;;;15.32;;
11504;SDS011;5809;53.262;10.408;2023-04-16T08:18:44;17.10;;;14.45;;
11504;SDS011;5809;53.262;10.408;2023-04-16T08:21:11;16.05;;;14.23;;
11504;SDS011;5809;53.262;10.408;2023-04-16T08:23:38;17.38;;;14.70;;
11504;SDS011;5809;53.262;10.408;2023-04-16T08:26:05;19.42;;;14.95;;
11504;SDS011;5809;53.262;10.408;2023-04-16T08:28:32;19.20;;;15.43;;
11504;SDS011;5809;53.262;10.408;2023-04-16T08:31:00;18.45;;;15.68;;
11504;SDS011;5809;53.262;10.408;2023-04-16T08:33:27;21.98;;;16.02;;
11504;SDS011;5809;53.262;10.408;2023-04-16T08:35:54;19.90;;;14.70;;
11504;SDS011;5809;53.262;10.408;2023-04-16T08:38:21;18.30;;;14.77;;
11504;SDS011;5809;53.262;10.408;2023-04-16T08:40:48;19.27;;;14.77;;
11504;SDS011;5809;53.262;10.408;2023-04-16T08:43:15;17.65;;;14.38;;
11504;SDS011;5809;53.262;10.408;2023-04-16T08:45:44;18.63;;;14.38;;
11504;SDS011;5809;53.262;10.408;2023-04-16T08:48:14;17.38;;;13.63;;
11504;SDS011;5809;53.262;10.408;2023-04-16T08:50:41;18.35;;;13.95;;
11504;SDS011;5809;53.262;10.408;2023-04-16T08:53:09;20.67;;;14.90;;
11504;SDS011;5809;53.262;10.408;2023-04-16T08:55:42;18.95;;;14.48;;
11504;SDS011;5809;53.262;10.408;2023-04-16T08:58:13;17.40;;;14.95;;
11504;SDS011;5809;53.262;10.408;2023-04-16T09:00:41;16.60;;;14.60;;
11504;SDS011;5809;53.262;10.408;2023-04-16T09:03:10;19.23;;;15.25;;
11504;SDS011;5809;53.262;10.408;2023-04-16T09:05:38;19.10;;;15.15;;
11504;SDS011;5809;53.262;10.408;2023-04-16T09:08:06;22.40;;;14.27;;
11504;SDS011;5809;53.262;10.408;2023-04-16T09:10:34;19.27;;;14.90;;
11504;SDS011;5809;53.262;10.408;2023-04-16T09:13:01;17.35;;;14.55;;
11504;SDS011;5809;53.262;10.408;2023-04-16T09:15:28;20.63;;;15.88;;
11504;SDS011;5809;53.262;10.408;2023-04-16T09:17:55;22.58;;;15.80;;
11504;SDS011;5809;53.262;10.408;2023-04-16T09:20:22;19.70;;;16.42;;
11504;SDS011;5809;53.262;10.408;2023-04-16T09:22:51;20.95;;;15.40;;
11504;SDS011;5809;53.262;10.408;2023-04-16T09:25:18;20.48;;;14.63;;
11504;SDS011;5809;53.262;10.408;2023-04-16T09:27:48;18.85;;;15.60;;
11504;SDS011;5809;53.262;10.408;2023-04-16T09:30:19;21.13;;;16.58;;
11504;SDS011;5809;53.262;10.408;2023-04-16T09:32:47;18.42;;;14.32;;
11504;SDS011;5809;53.262;10.408;2023-04-16T09:35:15;19.40;;;14.95;;
11504;SDS011;5809;53.262;10.408;2023-04-16T09:37:43;18.75;;;15.70;;
11504;SDS011;5809;53.262;10.408;2023-04-16T09:40:24;18.40;;;14.98;;
11504;SDS011;5809;53.262;10.408;2023-04-16T09:42:55;17.90;;;14.63;;
11504;SDS011;5809;53.262;10.408;2023-04-16T09:45:24;16.70;;;14.52;;
11504;SDS011;5809;53.262;10.408;2023-04-16T09:48:01;17.52;;;13.75;;
11504;SDS011;5809;53.262;10.408;2023-04-16T09:50:29;20.08;;;14.48;;
11504;SDS011;5809;53.262;10.408;2023-04-16T09:52:56;16.90;;;13.43;;
11504;SDS011;5809;53.262;10.408;2023-04-16T09:55:29;19.75;;;13.93;;
11504;SDS011;5809;53.262;10.408;2023-04-16T09:57:58;16.85;;;14.15;;
11504;SDS011;5809;53.262;10.408;2023-04-16T10:00:26;14.63;;;13.02;;
11504;SDS011;5809;53.262;10.408;2023-04-16T10:03:01;17.23;;;13.27;;
11504;SDS011;5809;53.262;10.408;2023-04-16T10:05:30;15.40;;;13.18;;
11504;SDS011;5809;53.262;10.408;2023-04-16T10:07:58;16.50;;;13.48;;
11504;SDS011;5809;53.262;10.408;2023-04-16T10:10:26;15.95;;;13.10;;
11504;SDS011;5809;53.262;10.408;2023-04-16T10:12:54;17.50;;;12.68;;
11504;SDS011;5809;53.262;10.408;2023-04-16T10:15:21;15.68;;;12.68;;
11504;SDS011;5809;53.262;10.408;2023-04-16T10:17:49;21.17;;;14.93;;
11504;SDS011;5809;53.262;10.408;2023-04-16T10:20:16;18.38;;;13.68;;
11504;SDS011;5809;53.262;10.408;2023-04-16T10:22:43;16.08;;;12.50;;
11504;SDS011;5809;53.262;10.408;2023-04-16T10:25:11;15.68;;;13.73;;
11504;SDS011;5809;53.262;10.408;2023-04-16T10:27:38;16.15;;;13.40;;
11504;SDS011;5809;53.262;10.408;2023-04-16T10:30:08;16.58;;;12.85;;
11504;SDS011;5809;53.262;10.408;2023-04-16T10:32:37;14.30;;;12.80;;
11504;SDS011;5809;53.262;10.408;2023-04-16T10:35:06;17.20;;;13.05;;
11504;SDS011;5809;53.262;10.408;2023-04-16T10:37:33;15.18;;;13.05;;
11504;SDS011;5809;53.262;10.408;2023-04-16T10:40:05;15.00;;;12.32;;
11504;SDS011;5809;53.262;10.408;2023-04-16T10:42:52;14.85;;;11.13;;
11504;SDS011;5809;53.262;10.408;2023-04-16T10:45:25;15.48;;;13.43;;
11504;SDS011;5809;53.262;10.408;2023-04-16T10:47:55;13.15;;;11.07;;
11504;SDS011;5809;53.262;10.408;2023-04-16T10:50:22;12.35;;;10.93;;
11504;SDS011;5809;53.262;10.408;2023-04-16T10:53:03;14.52;;;10.95;;
11504;SDS011;5809;53.262;10.408;2023-04-16T10:55:54;14.00;;;11.02;;
11504;SDS011;5809;53.262;10.408;2023-04-16T10:58:36;16.10;;;11.07;;
11504;SDS011;5809;53.262;10.408;2023-04-16T11:01:06;13.05;;;11.15;;
11504;SDS011;5809;53.262;10.408;2023-04-16T11:03:41;15.48;;;11.30;;
11504;SDS011;5809;53.262;10.408;2023-04-16T11:06:10;16.25;;;12.98;;
11504;SDS011;5809;53.262;10.408;2023-04-16T11:08:38;13.48;;;11.05;;
11504;SDS011;5809;53.262;10.408;2023-04-16T11:11:06;13.32;;;11.38;;
11504;SDS011;5809;53.262;10.408;2023-04-16T11:13:34;16.52;;;11.18;;
11504;SDS011;5809;53.262;10.408;2023-04-16T11:16:02;13.63;;;11.00;;
11504;SDS011;5809;53.262;10.408;2023-04-16T11:18:31;15.07;;;11.73;;
11504;SDS011;5809;53.262;10.408;2023-04-16T11:20:58;13.93;;;11.35;;
11504;SDS011;5809;53.262;10.408;2023-04-16T11:23:25;12.95;;;10.13;;
11504;SDS011;5809;53.262;10.408;2023-04-16T11:25:52;13.52;;;10.63;;
11504;SDS011;5809;53.262;10.408;2023-04-16T11:28:30;12.73;;;10.38;;
11504;SDS011;5809;53.262;10.408;2023-04-16T11:30:58;11.40;;;10.10;;
11504;SDS011;5809;53.262;10.408;2023-04-16T11:33:35;14.20;;;10.18;;
11504;SDS011;5809;53.262;10.408;2023-04-16T11:36:03;11.55;;;9.65;;
11504;SDS011;5809;53.262;10.408;2023-04-16T11:38:34;11.98;;;9.80;;
11504;SDS011;5809;53.262;10.408;2023-04-16T11:41:02;11.50;;;9.70;;
11504;SDS011;5809;53.262;10.408;2023-04-16T11:43:29;10.65;;;9.57;;
11504;SDS011;5809;53.262;10.408;2023-04-16T11:45:56;12.13;;;9.60;;
11504;SDS011;5809;53.262;10.408;2023-04-16T11:48:24;10.90;;;9.80;;
11504;SDS011;5809;53.262;10.408;2023-04-16T11:50:56;11.88;;;9.50;;
11504;SDS011;5809;53.262;10.408;2023-04-16T11:53:23;12.88;;;9.73;;
11504;SDS011;5809;53.262;10.408;2023-04-16T11:55:51;12.18;;;10.25;;
11504;SDS011;5809;53.262;10.408;2023-04-16T11:58:18;10.80;;;9.52;;
11504;SDS011;5809;53.262;10.408;2023-04-16T12:00:46;13.07;;;9.65;;
11504;SDS011;5809;53.262;10.408;2023-04-16T12:03:17;13.02;;;9.68;;
11504;SDS011;5809;53.262;10.408;2023-04-16T12:05:44;11.10;;;9.77;;
11504;SDS011;5809;53.262;10.408;2023-04-16T12:08:12;12.00;;;10.00;;
11504;SDS011;5809;53.262;10.408;2023-04-16T12:10:54;12.32;;;9.15;;
11504;SDS011;5809;53.262;10.408;2023-04-16T12:13:23;12.10;;;9.13;;
11504;SDS011;5809;53.262;10.408;2023-04-16T12:15:51;10.98;;;9.40;;
11504;SDS011;5809;53.262;10.408;2023-04-16T12:18:19;10.55;;;9.40;;
11504;SDS011;5809;53.262;10.408;2023-04-16T12:20:48;11.48;;;8.68;;
11504;SDS011;5809;53.262;10.408;2023-04-16T12:23:26;9.38;;;8.48;;
11504;SDS011;5809;53.262;10.408;2023-04-16T12:25:54;12.43;;;8.20;;
11504;SDS011;5809;53.262;10.408;2023-04-16T12:28:26;9.18;;;8.25;;
11504;SDS011;5809;53.262;10.408;2023-04-16T12:30:55;8.60;;;7.70;;
11504;SDS011;5809;53.262;10.408;2023-04-16T12:33:21;8.82;;;7.93;;
11504;SDS011;5809;53.262;10.408;2023-04-16T12:35:48;9.75;;;7.35;;
11504;SDS011;5809;53.262;10.408;2023-04-16T12:38:15;9.07;;;8.07;;
11504;SDS011;5809;53.262;10.408;2023-04-16T12:40:44;8.77;;;6.90;;
11504;SDS011;5809;53.262;10.408;2023-04-16T12:43:11;9.13;;;8.10;;
11504;SDS011;5809;53.262;10.408;2023-04-16T12:45:38;9.48;;;8.48;;
11504;SDS011;5809;53.262;10.408;2023-04-16T12:48:05;9.68;;;8.60;;
11504;SDS011;5809;53.262;10.408;2023-04-16T12:50:32;9.77;;;8.77;;
11504;SDS011;5809;53.262;10.408;2023-04-16T12:52:59;10.77;;;9.13;;
11504;SDS011;5809;53.262;10.408;2023-04-16T12:55:26;10.20;;;9.20;;
11504;SDS011;5809;53.262;10.408;2023-04-16T12:57:54;10.85;;;9.20;;
11504;SDS011;5809;53.262;10.408;2023-04-16T13:00:21;11.73;;;9.85;;
11504;SDS011;5809;53.262;10.408;2023-04-16T13:02:48;10.68;;;9.57;;
11504;SDS011;5809;53.262;10.408;2023-04-16T13:05:15;15.57;;;10.65;;
11504;SDS011;5809;53.262;10.408;2023-04-16T13:07:43;15.00;;;11.15;;
11504;SDS011;5809;53.262;10.408;2023-04-16T13:10:10;12.15;;;10.75;;
11504;SDS011;5809;53.262;10.408;2023-04-16T13:12:37;13.90;;;11.60;;
11504;SDS011;5809;53.262;10.408;2023-04-16T13:15:07;17.60;;;11.57;;
11504;SDS011;5809;53.262;10.408;2023-04-16T13:17:34;12.38;;;11.02;;
11504;SDS011;5809;53.262;10.408;2023-04-16T13:20:01;12.27;;;10.30;;
11504;SDS011;5809;53.262;10.408;2023-04-16T13:22:28;13.63;;;10.15;;
11504;SDS011;5809;53.262;10.408;2023-04-16T13:24:55;11.23;;;10.10;;
11504;SDS011;5809;53.262;10.408;2023-04-16T13:27:22;10.52;;;9.45;;
11504;SDS011;5809;53.262;10.408;2023-04-16T13:29:50;14.38;;;10.20;;
11504;SDS011;5809;53.262;10.408;2023-04-16T13:32:19;12.38;;;10.25;;
11504;SDS011;5809;53.262;10.408;2023-04-16T13:34:46;11.75;;;9.85;;
11504;SDS011;5809;53.262;10.408;2023-04-16T13:37:13;10.00;;;8.90;;
11504;SDS011;5809;53.262;10.408;2023-04-16T13:39:39;12.25;;;10.00;;
11504;SDS011;5809;53.262;10.408;2023-04-16T13:42:06;10.65;;;9.27;;
11504;SDS011;5809;53.262;10.408;2023-04-16T13:44:33;11.27;;;9.65;;
11504;SDS011;5809;53.262;10.408;2023-04-16T13:47:00;12.20;;;9.20;;
11504;SDS011;5809;53.262;10.408;2023-04-16T13:49:29;12.65;;;8.68;;
11504;SDS011;5809;53.262;10.408;2023-04-16T13:51:57;10.75;;;8.98;;
11504;SDS011;5809;53.262;10.408;2023-04-16T13:54:25;10.63;;;8.60;;
11504;SDS011;5809;53.262;10.408;2023-04-16T13:56:52;9.05;;;8.10;;
11504;SDS011;5809;53.262;10.408;2023-04-16T13:59:19;10.15;;;8.15;;
11504;SDS011;5809;53.262;10.408;2023-04-16T14:01:46;11.32;;;8.52;;
11504;SDS011;5809;53.262;10.408;2023-04-16T14:04:13;11.10;;;8.57;;
11504;SDS011;5809;53.262;10.408;2023-04-16T14:06:41;10.68;;;8.13;;
11504;SDS011;5809;53.262;10.408;2023-04-16T14:09:08;10.70;;;8.73;;
11504;SDS011;5809;53.262;10.408;2023-04-16T14:11:35;10.65;;;8.80;;
11504;SDS011;5809;53.262;10.408;2023-04-16T14:14:02;11.38;;;8.65;;
11504;SDS011;5809;53.262;10.408;2023-04-16T14:16:29;10.77;;;9.13;;
11504;SDS011;5809;53.262;10.408;2023-04-16T14:18:56;12.45;;;9.57;;
11504;SDS011;5809;53.262;10.408;2023-04-16T14:21:24;10.40;;;8.70;;
11504;SDS011;5809;53.262;10.408;2023-04-16T14:23:53;13.35;;;9.75;;
11504;SDS011;5809;53.262;10.408;2023-04-16T14:26:20;10.35;;;9.20;;